Time;durP1;ratioP1;P1;durP2;ratioP2;P2;SDS_P1;SDS_P2;PMS_P1;PMS_P2;Temp;Humidity;BMP_temperature;BMP_pressure;BME280_temperature;BME280_humidity;BME280_pressure;Samples;Min_cycle;Max_cycle;Signal;HPM_P1;HPM_P2
2022/08/13 00:01:51;;;;;;;;;19.25;19.25;;;;;28.18;28.49;101027.06;5043455;28;45392;-62
2022/08/13 00:04:17;;;;;;;;;17.00;15.00;;;;;28.16;28.90;101023.72;5043265;28;45391;-62
2022/08/13 00:09:11;;;;;;;;;13.25;13.00;;;;;28.09;28.68;101018.25;5063791;28;45260;-62
2022/08/13 00:14:26;;;;;;;;;14.50;14.00;;;;;28.02;28.55;101021.94;5063067;28;45334;-63
2022/08/13 00:16:55;;;;;;;;;15.25;12.25;;;;;27.98;29.09;101026.09;5063767;28;45319;-62
2022/08/13 00:19:26;;;;;;;;;12.50;10.25;;;;;27.94;28.92;101024.81;5063677;28;45363;-62
2022/08/13 00:21:53;;;;;;;;;11.00;10.00;;;;;27.92;29.10;101022.31;5063453;28;45434;-62
2022/08/13 00:24:19;;;;;;;;;15.50;11.50;;;;;27.86;29.04;101028.50;5058724;28;45431;-62
2022/08/13 00:26:44;;;;;;;;;14.25;11.75;;;;;27.79;28.99;101022.19;5043594;28;45301;-62
2022/08/13 00:29:10;;;;;;;;;13.75;11.00;;;;;27.75;28.80;101016.34;5043231;28;45270;-62
2022/08/13 00:31:37;;;;;;;;;15.00;14.00;;;;;27.73;28.76;101020.31;5043161;28;46009;-62
2022/08/13 00:34:03;;;;;;;;;13.00;13.00;;;;;27.70;29.33;101018.81;5058813;28;46213;-62
2022/08/13 00:36:32;;;;;;;;;14.75;12.00;;;;;27.71;29.07;101025.06;5062228;28;45463;-62
2022/08/13 00:38:57;;;;;;;;;14.75;13.75;;;;;27.68;29.06;101025.47;5063415;28;45311;-62
2022/08/13 00:41:38;;;;;;;;;10.75;10.75;;;;;27.71;29.33;101017.75;5063270;28;46087;-62
2022/08/13 00:44:08;;;;;;;;;15.25;13.50;;;;;27.70;29.19;101026.09;5055622;28;45329;-62
2022/08/13 00:46:34;;;;;;;;;13.50;12.00;;;;;27.68;29.26;101022.75;5056055;28;45280;-62
2022/08/13 00:49:03;;;;;;;;;17.00;14.00;;;;;27.65;29.01;101023.09;5063311;28;45614;-62
2022/08/13 00:51:30;;;;;;;;;13.00;8.75;;;;;27.64;29.18;101024.97;5062995;28;45435;-62
2022/08/13 00:53:58;;;;;;;;;14.00;11.00;;;;;27.59;29.13;101019.31;5061985;28;45405;-62
2022/08/13 00:56:25;;;;;;;;;12.75;11.00;;;;;27.57;29.16;101018.69;5062220;28;45500;-62
2022/08/13 00:58:52;;;;;;;;;18.00;14.50;;;;;27.58;28.86;101020.34;5063275;28;45296;-61
2022/08/13 01:01:20;;;;;;;;;11.50;10.25;;;;;27.54;29.32;101022.59;5062643;28;45499;-61
2022/08/13 01:03:47;;;;;;;;;9.25;9.25;;;;;27.49;29.29;101024.19;5062798;28;45284;-62
2022/08/13 01:06:12;;;;;;;;;10.50;10.50;;;;;27.47;29.53;101024.41;5062717;28;45236;-62
2022/08/13 01:08:40;;;;;;;;;12.00;10.75;;;;;27.54;29.76;101030.72;5063245;28;45318;-62
2022/08/13 01:11:12;;;;;;;;;9.00;9.00;;;;;27.60;29.72;101026.41;5062596;28;46360;-62
2022/08/13 01:13:41;;;;;;;;;11.25;10.25;;;;;27.63;30.08;101022.47;5062575;28;45373;-62
2022/08/13 01:16:13;;;;;;;;;8.25;8.25;;;;;27.64;29.88;101030.38;5062398;28;45331;-62
2022/08/13 01:18:42;;;;;;;;;9.25;9.00;;;;;27.63;29.54;101030.56;5062938;28;45327;-61
2022/08/13 01:21:20;;;;;;;;;9.25;8.75;;;;;27.61;29.80;101032.66;5062411;28;45352;-62
2022/08/13 01:23:48;;;;;;;;;7.25;5.50;;;;;27.62;29.25;101029.75;5062146;28;45449;-62
2022/08/13 01:26:16;;;;;;;;;10.00;9.50;;;;;27.57;29.47;101025.94;5042711;28;45289;-62
2022/08/13 01:28:44;;;;;;;;;11.25;10.50;;;;;27.54;29.73;101029.88;5042343;28;45348;-63
2022/08/13 01:31:14;;;;;;;;;7.75;7.75;;;;;27.48;29.37;101022.53;5047948;28;45641;-62
2022/08/13 01:33:43;;;;;;;;;9.75;9.75;;;;;27.46;29.49;101024.59;5062298;28;45291;-63
2022/08/13 01:36:10;;;;;;;;;9.00;8.75;;;;;27.41;29.48;101022.50;5062371;28;45375;-63
2022/08/13 01:38:37;;;;;;;;;7.75;7.50;;;;;27.40;29.60;101019.97;5062560;28;45315;-63
2022/08/13 01:41:04;;;;;;;;;7.00;7.00;;;;;27.37;29.33;101028.47;5061988;28;47223;-63
2022/08/13 01:43:31;;;;;;;;;9.25;8.50;;;;;27.33;29.37;101025.31;5062030;28;45468;-63
2022/08/13 01:45:59;;;;;;;;;8.50;7.00;;;;;27.30;29.35;101031.13;5062197;28;45268;-63
2022/08/13 01:51:21;;;;;;;;;7.50;7.00;;;;;27.21;29.61;101026.88;5062207;28;45228;-62
2022/08/13 01:53:49;;;;;;;;;11.50;10.75;;;;;27.27;29.61;101026.94;5061346;28;45362;-63
2022/08/13 01:56:21;;;;;;;;;9.00;6.25;;;;;27.32;29.50;101028.22;5062128;28;45283;-62
2022/08/13 01:58:49;;;;;;;;;10.00;8.25;;;;;27.33;29.22;101027.19;5062013;28;45405;-63
2022/08/13 02:01:14;;;;;;;;;8.00;7.25;;;;;27.33;29.32;101027.19;5061455;28;45311;-64
2022/08/13 02:03:43;;;;;;;;;7.25;7.25;;;;;27.27;29.22;101026.94;5062249;28;45227;-63
2022/08/13 02:06:11;;;;;;;;;11.00;8.00;;;;;27.21;29.32;101038.53;5061962;28;45339;-62
2022/08/13 02:08:38;;;;;;;;;7.25;7.25;;;;;27.13;29.44;101033.25;5062454;28;45631;-62
2022/08/13 02:11:04;;;;;;;;;8.25;7.25;;;;;27.05;29.58;101036.06;5062070;28;45193;-62
2022/08/13 02:13:29;;;;;;;;;8.50;7.25;;;;;26.99;29.42;101034.91;5061975;28;45284;-63
2022/08/13 02:15:55;;;;;;;;;10.00;9.00;;;;;26.92;29.40;101034.00;5061918;28;45289;-63
2022/08/13 02:18:24;;;;;;;;;9.00;8.00;;;;;26.87;29.37;101031.06;5062318;28;45438;-62
2022/08/13 02:20:54;;;;;;;;;8.25;8.00;;;;;26.84;29.86;101033.28;5061951;28;45370;-62
2022/08/13 02:23:23;;;;;;;;;8.25;7.25;;;;;26.84;29.65;101031.41;5062003;28;45212;-63
2022/08/13 02:25:50;;;;;;;;;8.25;7.00;;;;;26.86;29.77;101034.78;5045418;28;45427;-63
2022/08/13 02:28:19;;;;;;;;;7.50;7.00;;;;;26.88;29.62;101027.31;5041772;28;45253;-62
2022/08/13 02:30:46;;;;;;;;;8.75;5.00;;;;;26.90;29.67;101033.38;5041394;28;45220;-62
2022/08/13 02:33:13;;;;;;;;;8.00;7.00;;;;;26.95;29.89;101038.22;5041756;28;45295;-62
2022/08/13 02:35:39;;;;;;;;;10.00;8.50;;;;;26.95;29.60;101030.09;5041696;28;45395;-63
2022/08/13 02:38:05;;;;;;;;;8.25;7.50;;;;;26.96;29.95;101031.78;5041876;28;45304;-62
2022/08/13 02:43:16;;;;;;;;;7.25;6.25;;;;;27.03;29.78;101030.00;5041474;28;45335;-63
2022/08/13 02:45:45;;;;;;;;;7.50;7.00;;;;;27.06;29.91;101032.31;5061610;28;45225;-62
2022/08/13 02:48:11;;;;;;;;;6.50;6.50;;;;;27.05;29.81;101027.94;5061662;28;45542;-63
2022/08/13 02:50:41;;;;;;;;;6.50;6.50;;;;;27.06;29.65;101031.50;5061549;28;46513;-63
2022/08/13 02:53:11;;;;;;;;;7.25;7.00;;;;;27.07;29.58;101031.28;5061415;28;45319;-63
2022/08/13 02:55:37;;;;;;;;;8.00;7.25;;;;;27.07;29.78;101022.34;5061447;28;45226;-62
2022/08/13 02:58:04;;;;;;;;;6.25;6.25;;;;;26.98;29.34;101038.66;5061337;28;45337;-63
2022/08/13 03:00:30;;;;;;;;;9.75;6.00;;;;;26.94;29.57;101039.25;5061223;28;45346;-63
2022/08/13 03:02:57;;;;;;;;;8.00;7.75;;;;;26.90;29.67;101033.38;5061256;28;45315;-63
2022/08/13 03:05:23;;;;;;;;;8.50;6.00;;;;;26.84;29.42;101028.72;5061483;28;45314;-63
2022/08/13 03:07:49;;;;;;;;;8.00;7.25;;;;;26.80;29.57;101027.44;5061506;28;45220;-63
2022/08/13 03:10:17;;;;;;;;;7.75;7.75;;;;;26.70;29.58;101030.44;5061341;28;45234;-63
2022/08/13 03:12:53;;;;;;;;;6.00;5.75;;;;;26.62;29.46;101019.75;5061185;28;45720;-63
2022/08/13 03:15:22;;;;;;;;;8.50;7.25;;;;;26.55;29.51;101021.53;5061225;28;45571;-63
2022/08/13 03:17:47;;;;;;;;;6.25;5.25;;;;;26.47;29.62;101024.31;5060488;28;45387;-63
2022/08/13 03:20:16;;;;;;;;;9.00;7.00;;;;;26.37;29.69;101021.84;5061133;28;45295;-63
2022/08/13 03:22:54;;;;;;;;;7.25;6.00;;;;;26.32;29.60;101029.69;5061161;28;45332;-63
2022/08/13 03:25:21;;;;;;;;;7.75;6.25;;;;;26.28;29.79;101027.53;5048574;28;45403;-62
2022/08/13 03:27:47;;;;;;;;;7.00;7.00;;;;;26.23;29.68;101022.72;5040716;28;45369;-63
2022/08/13 03:30:16;;;;;;;;;6.50;6.00;;;;;26.23;30.02;101024.56;5040729;28;45378;-63
2022/08/13 03:32:44;;;;;;;;;8.00;6.75;;;;;26.19;29.83;101024.09;5040562;28;45263;-63
2022/08/13 03:35:22;;;;;;;;;8.25;7.25;;;;;26.15;29.74;101020.94;5040762;28;45359;-63
2022/08/13 03:37:54;;;;;;;;;6.75;6.50;;;;;26.16;30.27;101028.03;5047210;28;45350;-63
2022/08/13 03:40:22;;;;;;;;;7.25;7.25;;;;;26.24;30.34;101013.59;5060497;28;45467;-63
2022/08/13 03:42:49;;;;;;;;;6.00;6.00;;;;;26.28;30.29;101022.97;5060645;28;45323;-63
2022/08/13 03:45:16;;;;;;;;;9.50;6.25;;;;;26.33;30.04;101017.88;5060423;28;46420;-63
2022/08/13 03:47:43;;;;;;;;;12.75;8.00;;;;;26.35;29.89;101025.78;5060914;28;45372;-63
2022/08/13 03:50:10;;;;;;;;;6.25;6.25;;;;;26.27;30.37;101023.19;5060544;28;45414;-63
2022/08/13 03:52:37;;;;;;;;;10.25;7.00;;;;;26.21;30.10;101022.03;5060733;28;45404;-63
2022/08/13 03:55:06;;;;;;;;;7.00;6.75;;;;;26.20;30.46;101024.94;5060727;28;45304;-63
2022/08/13 03:57:32;;;;;;;;;9.00;7.00;;;;;26.17;30.05;101026.16;5060540;28;45224;-63
2022/08/13 03:59:59;;;;;;;;;7.50;7.00;;;;;26.11;30.16;101024.19;5058936;28;46340;-63
2022/08/13 04:02:24;;;;;;;;;7.00;6.25;;;;;26.03;30.65;101022.41;5060631;28;45299;-63
2022/08/13 04:04:50;;;;;;;;;8.75;7.75;;;;;26.01;30.47;101029.03;5060566;28;45326;-63
2022/08/13 04:07:17;;;;;;;;;6.00;6.00;;;;;25.98;30.68;101023.97;5060717;28;45473;-63
2022/08/13 04:09:44;;;;;;;;;7.00;7.00;;;;;25.94;30.23;101025.41;5060268;28;45388;-63
2022/08/13 04:12:12;;;;;;;;;7.75;7.00;;;;;25.94;30.58;101026.22;5060342;28;45212;-63
2022/08/13 04:14:41;;;;;;;;;8.25;7.00;;;;;25.94;30.51;101022.69;5060481;28;45426;-63
2022/08/13 04:17:11;;;;;;;;;10.00;8.00;;;;;25.89;30.22;101017.84;5059007;28;45497;-63
2022/08/13 04:19:38;;;;;;;;;6.75;5.75;;;;;25.88;30.53;101024.25;5060230;28;45317;-63
2022/08/13 04:22:10;;;;;;;;;7.00;6.50;;;;;25.84;30.83;101020.28;5060456;28;45438;-63
2022/08/13 04:24:36;;;;;;;;;5.25;5.25;;;;;25.82;30.79;101022.28;5045273;28;45302;-63
2022/08/13 04:27:04;;;;;;;;;6.50;6.50;;;;;25.79;30.80;101023.50;5040215;28;45443;-63
2022/08/13 04:29:30;;;;;;;;;7.25;7.25;;;;;25.74;30.33;101017.81;5041583;28;45359;-63
2022/08/13 04:31:56;;;;;;;;;7.25;7.25;;;;;25.71;30.25;101028.97;5043483;28;45402;-64
2022/08/13 04:34:25;;;;;;;;;6.00;6.00;;;;;25.68;30.87;101026.63;5043484;28;45313;-63
2022/08/13 04:36:50;;;;;;;;;7.25;6.50;;;;;25.63;30.73;101029.03;5043588;28;45493;-63
2022/08/13 04:39:16;;;;;;;;;5.75;5.75;;;;;25.58;30.54;101024.16;5043499;28;45655;-63
2022/08/13 04:41:41;;;;;;;;;9.00;7.75;;;;;25.55;30.76;101021.84;5043407;28;45239;-63
2022/08/13 04:44:07;;;;;;;;;6.00;5.00;;;;;25.53;30.75;101021.19;5043506;28;45522;-63
2022/08/13 04:46:33;;;;;;;;;7.25;6.25;;;;;25.50;30.84;101020.69;5039815;28;45372;-63
2022/08/13 04:48:58;;;;;;;;;7.50;7.50;;;;;25.44;30.58;101016.88;5063415;28;46165;-63
2022/08/13 04:51:25;;;;;;;;;10.75;7.50;;;;;25.42;30.74;101018.06;5063425;27;45437;-63
2022/08/13 04:53:52;;;;;;;;;6.75;6.00;;;;;25.40;30.68;101018.25;5063340;28;45397;-63
2022/08/13 04:56:17;;;;;;;;;8.25;8.25;;;;;25.38;31.25;101024.84;5063376;28;45312;-63
2022/08/13 04:58:44;;;;;;;;;6.00;6.00;;;;;25.37;31.18;101018.63;5061885;28;45331;-63
2022/08/13 05:01:11;;;;;;;;;7.00;6.50;;;;;25.34;30.85;101014.41;5063119;28;45318;-63
2022/08/13 05:03:39;;;;;;;;;5.75;5.75;;;;;25.32;31.40;101019.16;5063373;28;45298;-63
2022/08/13 05:06:06;;;;;;;;;6.00;6.00;;;;;25.31;31.06;101022.03;5063375;28;45352;-63
2022/08/13 05:08:32;;;;;;;;;6.25;6.00;;;;;25.28;31.07;101019.72;5061896;28;45417;-63
2022/08/13 05:10:59;;;;;;;;;6.25;6.00;;;;;25.26;31.47;101019.03;5063158;28;45333;-63
2022/08/13 05:13:32;;;;;;;;;7.00;6.00;;;;;25.25;31.35;101022.75;5063106;28;45296;-63
2022/08/13 05:16:01;;;;;;;;;7.00;5.50;;;;;25.22;31.27;101025.81;5063000;28;45264;-63
2022/08/13 05:18:29;;;;;;;;;7.75;6.50;;;;;25.27;31.18;101031.50;5062940;28;45371;-63
2022/08/13 05:20:57;;;;;;;;;7.00;7.00;;;;;25.29;31.58;101037.56;5062820;28;45409;-63
2022/08/13 05:23:24;;;;;;;;;8.75;7.50;;;;;25.38;31.34;101033.78;5063264;28;45358;-63
2022/08/13 05:25:50;;;;;;;;;7.00;6.50;;;;;25.44;31.52;101035.75;5047962;28;45206;-63
2022/08/13 05:28:17;;;;;;;;;6.00;6.00;;;;;25.48;31.31;101034.38;5062730;28;46318;-64
2022/08/13 05:30:46;;;;;;;;;7.75;5.75;;;;;25.47;31.54;101031.84;5062611;28;45279;-63
2022/08/13 05:33:13;;;;;;;;;5.00;5.00;;;;;25.55;31.13;101038.03;5063009;28;45286;-63
2022/08/13 05:35:43;;;;;;;;;6.75;6.75;;;;;25.65;31.46;101036.94;5062703;28;45537;-63
2022/08/13 05:38:09;;;;;;;;;6.75;6.50;;;;;25.75;31.65;101041.09;5062644;28;46173;-64
2022/08/13 05:40:35;;;;;;;;;8.00;6.00;;;;;25.80;31.38;101041.38;5062136;28;45387;-64
2022/08/13 05:43:02;;;;;;;;;7.00;7.00;;;;;25.88;31.40;101029.66;5062595;28;45339;-63
2022/08/13 05:45:28;;;;;;;;;8.50;6.50;;;;;25.90;31.14;101035.72;5062564;28;45239;-63
2022/08/13 05:47:53;;;;;;;;;5.50;5.50;;;;;25.83;30.91;101042.84;5062543;28;46126;-63
2022/08/13 05:50:19;;;;;;;;;7.00;5.50;;;;;25.79;31.32;101039.69;5062477;28;45231;-63
2022/08/13 05:52:44;;;;;;;;;6.00;5.75;;;;;25.84;30.86;101048.09;5058079;28;45190;-64
2022/08/13 05:55:12;;;;;;;;;7.00;6.00;;;;;25.84;31.06;101050.78;5060700;28;45256;-63
2022/08/13 05:57:38;;;;;;;;;6.00;6.00;;;;;25.89;31.20;101050.22;5062159;28;45243;-63
2022/08/13 06:05:38;;;;;;;;;7.50;6.75;;;;;26.13;30.79;101044.56;5062413;28;45306;-64
2022/08/13 06:08:05;;;;;;;;;6.00;6.00;;;;;26.19;31.46;101039.47;5062008;28;45366;-63
2022/08/13 06:10:32;;;;;;;;;7.50;6.00;;;;;26.25;30.78;101044.13;5062202;28;45238;-63
2022/08/13 06:12:58;;;;;;;;;8.25;6.00;;;;;26.24;31.39;101046.00;5061885;28;45222;-63
2022/08/13 06:15:25;;;;;;;;;6.25;5.25;;;;;26.34;31.48;101049.25;5062005;28;45508;-63
2022/08/13 06:17:51;;;;;;;;;7.00;5.50;;;;;26.43;30.91;101048.16;5061937;28;46254;-63
2022/08/13 06:20:20;;;;;;;;;7.50;5.75;;;;;26.53;31.21;101041.63;5062075;28;45327;-63
2022/08/13 06:22:47;;;;;;;;;6.75;6.75;;;;;26.59;31.07;101051.69;5062087;28;45262;-63
2022/08/13 06:25:15;;;;;;;;;5.75;5.75;;;;;26.63;30.84;101045.72;5050013;28;45462;-63
2022/08/13 06:27:42;;;;;;;;;8.25;7.00;;;;;26.64;30.84;101046.56;5062967;28;46127;-63
2022/08/13 06:30:09;;;;;;;;;8.00;6.00;;;;;26.69;31.11;101046.81;5061549;28;45340;-63
2022/08/13 06:32:37;;;;;;;;;7.50;5.00;;;;;26.78;31.06;101051.13;5044477;27;45502;-63
2022/08/13 06:35:06;;;;;;;;;6.25;5.75;;;;;26.78;30.83;101053.81;5041855;28;45173;-63
2022/08/13 06:37:32;;;;;;;;;7.25;7.25;;;;;26.76;30.57;101055.03;5060601;28;45401;-63
2022/08/13 06:39:59;;;;;;;;;6.25;5.25;;;;;26.86;31.00;101050.16;5062905;28;45366;-63
2022/08/13 06:42:26;;;;;;;;;5.75;5.75;;;;;27.02;31.17;101047.25;5060344;28;45327;-63
2022/08/13 06:44:55;;;;;;;;;7.75;7.75;;;;;27.18;30.80;101054.31;5067786;28;45267;-63
2022/08/13 06:47:23;;;;;;;;;7.00;7.00;;;;;27.34;31.25;101050.53;5067674;28;45382;-64
2022/08/13 06:49:49;;;;;;;;;7.00;6.00;;;;;27.44;30.97;101051.03;5069259;28;45476;-64
2022/08/13 06:52:15;;;;;;;;;6.25;6.00;;;;;27.49;30.75;101049.44;5064323;28;45336;-63
2022/08/13 06:54:40;;;;;;;;;7.25;7.25;;;;;27.53;30.60;101050.69;5062763;28;45882;-63
2022/08/13 06:57:08;;;;;;;;;8.50;7.00;;;;;27.45;30.34;101048.13;5060925;28;46455;-63
2022/08/13 06:59:36;;;;;;;;;6.00;6.00;;;;;27.41;30.85;101048.69;5060889;28;45289;-63
2022/08/13 07:02:03;;;;;;;;;5.75;5.75;;;;;27.49;30.50;101051.25;5061188;28;45315;-63
2022/08/13 07:04:29;;;;;;;;;8.00;6.00;;;;;27.54;30.55;101046.94;5066942;28;45394;-63
2022/08/13 07:06:55;;;;;;;;;7.00;6.00;;;;;27.57;30.40;101047.59;5040965;28;45347;-63
2022/08/13 07:09:21;;;;;;;;;7.50;7.00;;;;;27.65;30.09;101050.16;5040467;28;45530;-63
2022/08/13 07:11:47;;;;;;;;;6.25;5.00;;;;;27.70;30.52;101058.56;5049501;28;45393;-61
2022/08/13 07:14:14;;;;;;;;;5.00;5.00;;;;;27.67;30.09;101059.81;5066884;28;45448;-61
2022/08/13 07:16:42;;;;;;;;;9.00;7.25;;;;;27.67;29.96;101057.09;5054540;28;45451;-62
2022/08/13 07:19:11;;;;;;;;;9.25;7.25;;;;;27.63;29.64;101055.78;5072213;28;45705;-61
2022/08/13 07:21:37;;;;;;;;;5.75;5.25;;;;;27.61;29.91;101060.53;5039000;28;45596;-61
2022/08/13 07:24:04;;;;;;;;;9.00;7.25;;;;;27.60;29.81;101061.59;5048025;28;45672;-62
2022/08/13 07:26:36;;;;;;;;;6.00;6.00;;;;;27.58;29.55;101054.69;5061051;28;45334;-62
2022/08/13 07:29:04;;;;;;;;;6.25;6.25;;;;;27.60;29.83;101060.75;5060891;28;45219;-62
2022/08/13 07:31:33;;;;;;;;;6.00;6.00;;;;;27.61;29.71;101060.53;5061045;28;45497;-62
2022/08/13 07:34:04;;;;;;;;;5.50;5.25;;;;;27.64;29.79;101057.44;5060848;28;45299;-62
2022/08/13 07:36:35;;;;;;;;;9.75;5.00;;;;;27.64;29.60;101064.72;5060900;28;45435;-62
2022/08/13 07:39:06;;;;;;;;;6.00;6.00;;;;;27.63;29.73;101071.19;5060930;28;45283;-62
2022/08/13 07:41:35;;;;;;;;;7.25;6.50;;;;;27.60;29.77;101077.00;5061055;28;45467;-62
2022/08/13 07:44:02;;;;;;;;;8.00;6.50;;;;;27.59;29.56;101072.59;5060942;28;45213;-61
2022/08/13 07:46:29;;;;;;;;;8.00;6.50;;;;;27.59;30.06;101073.44;5060623;28;45258;-62
2022/08/13 07:48:55;;;;;;;;;5.50;4.50;;;;;27.57;29.69;101075.50;5060659;28;45381;-62
2022/08/13 07:51:21;;;;;;;;;7.00;7.00;;;;;27.58;29.73;101074.47;5060879;28;45283;-61
2022/08/13 07:53:55;;;;;;;;;6.50;6.00;;;;;27.64;29.90;101070.13;5060807;28;45433;-61
2022/08/13 07:56:28;;;;;;;;;5.75;5.25;;;;;27.68;29.94;101075.00;5060576;28;45521;-62
2022/08/13 07:59:00;;;;;;;;;3.00;3.00;;;;;27.72;29.43;101062.75;5060768;28;45172;-62
2022/08/13 08:01:27;;;;;;;;;6.00;6.00;;;;;27.78;29.55;101067.38;5060453;28;45457;-61
2022/08/13 08:03:56;;;;;;;;;7.50;7.00;;;;;27.81;29.82;101068.88;5061377;28;45247;-61
2022/08/13 08:06:22;;;;;;;;;7.25;4.75;;;;;27.87;29.87;101067.25;5064173;28;45278;-62
2022/08/13 08:08:53;;;;;;;;;5.75;5.75;;;;;27.90;29.75;101069.56;5064279;28;45358;-62
2022/08/13 08:14:04;;;;;;;;;7.50;5.50;;;;;28.01;29.98;101072.56;5064192;28;45283;-61
2022/08/13 08:16:31;;;;;;;;;6.75;6.75;;;;;28.07;29.95;101074.50;5063867;28;46500;-62
2022/08/13 08:18:59;;;;;;;;;6.50;5.00;;;;;28.08;29.38;101078.88;5063959;28;45418;-61
2022/08/13 08:21:26;;;;;;;;;4.25;4.25;;;;;28.12;29.18;101070.34;5064139;28;45378;-62
2022/08/13 08:24:04;;;;;;;;;5.00;4.00;;;;;28.16;29.06;101069.75;5063105;28;45339;-62
2022/08/13 08:26:33;;;;;;;;;7.75;6.50;;;;;28.22;29.04;101065.44;5043504;28;45362;-61
2022/08/13 08:29:03;;;;;;;;;5.00;5.00;;;;;28.22;29.07;101073.56;5043221;28;45362;-61
2022/08/13 08:31:29;;;;;;;;;7.00;4.25;;;;;28.26;28.83;101072.09;5043648;28;45226;-61
2022/08/13 08:33:57;;;;;;;;;5.25;5.25;;;;;28.33;28.94;101073.84;5043490;28;45527;-61
2022/08/13 08:36:24;;;;;;;;;4.50;4.50;;;;;28.41;29.12;101066.59;5043305;28;45333;-61
2022/08/13 08:44:24;;;;;;;;;5.00;5.00;;;;;28.59;29.15;101075.88;5043645;28;45457;-61
2022/08/13 08:46:59;;;;;;;;;5.75;5.75;;;;;28.68;28.80;101078.44;5042946;28;46461;-62
2022/08/13 08:49:26;;;;;;;;;7.00;4.00;;;;;28.73;29.12;101074.06;5053869;28;45346;-62
2022/08/13 08:51:52;;;;;;;;;5.25;5.25;;;;;28.77;29.01;101077.22;5063400;28;45381;-62
2022/08/13 08:54:20;;;;;;;;;7.00;5.00;;;;;28.81;28.53;101081.19;5063599;28;45274;-61
2022/08/13 08:56:54;;;;;;;;;5.25;5.25;;;;;28.88;28.77;101076.63;5062885;28;46244;-61
2022/08/13 08:59:23;;;;;;;;;3.00;3.00;;;;;28.97;28.42;101080.03;5063298;28;45246;-61
2022/08/13 09:01:53;;;;;;;;;6.50;5.00;;;;;29.06;28.47;101081.53;5063172;28;45295;-62
2022/08/13 09:04:20;;;;;;;;;4.75;4.75;;;;;29.10;28.24;101077.38;5063280;28;45529;-62
2022/08/13 09:06:49;;;;;;;;;4.00;4.00;;;;;29.19;28.46;101076.16;5063210;28;45171;-61
2022/08/13 09:09:16;;;;;;;;;6.00;5.00;;;;;29.26;29.01;101078.88;5063053;28;45347;-62
2022/08/13 09:11:43;;;;;;;;;5.00;5.00;;;;;29.34;28.06;101081.41;5063072;28;45481;-62
2022/08/13 09:14:10;;;;;;;;;4.50;4.00;;;;;29.42;28.46;101073.06;5063240;28;45248;-62
2022/08/13 09:16:39;;;;;;;;;5.50;4.25;;;;;29.51;28.04;101076.44;5062043;28;45258;-62
2022/08/13 09:19:12;;;;;;;;;5.00;5.00;;;;;29.61;27.85;101063.28;5063076;28;45349;-61
2022/08/13 09:21:48;;;;;;;;;5.50;4.00;;;;;29.71;28.23;101061.00;5063228;28;45331;-62
2022/08/13 09:24:17;;;;;;;;;5.00;4.00;;;;;29.77;28.22;101064.75;5059766;28;45350;-62
2022/08/13 09:26:48;;;;;;;;;5.00;3.50;;;;;29.84;27.92;101063.72;5042620;28;45498;-61
2022/08/13 09:29:18;;;;;;;;;3.00;3.00;;;;;29.93;27.77;101059.72;5042778;28;45305;-62
2022/08/13 09:31:45;;;;;;;;;4.00;3.50;;;;;30.03;27.90;101062.88;5042616;28;45341;-62
2022/08/13 09:34:11;;;;;;;;;6.50;5.00;;;;;30.11;27.58;101059.13;5042340;28;45394;-62
2022/08/13 09:36:38;;;;;;;;;3.75;3.00;;;;;30.22;26.95;101069.34;5042635;28;45248;-62
2022/08/13 09:39:04;;;;;;;;;2.25;2.00;;;;;30.31;27.31;101064.50;5042547;28;45327;-61
2022/08/13 09:41:46;;;;;;;;;4.25;4.25;;;;;30.39;27.33;101061.56;5042727;28;45450;-62
2022/08/13 09:44:15;;;;;;;;;4.00;4.00;;;;;30.47;26.86;101063.22;5050288;28;45236;-61
2022/08/13 09:46:40;;;;;;;;;4.00;4.00;;;;;30.55;26.89;101060.25;5062430;28;46239;-61
2022/08/13 09:49:08;;;;;;;;;6.00;3.00;;;;;30.60;26.55;101067.78;5062521;28;45307;-61
2022/08/13 09:51:35;;;;;;;;;3.00;3.00;;;;;30.62;26.77;101060.25;5062753;28;45303;-61
2022/08/13 09:54:11;;;;;;;;;2.75;2.75;;;;;30.69;26.29;101058.38;5062648;28;45507;-62
2022/08/13 09:56:37;;;;;;;;;6.00;4.25;;;;;30.75;26.35;101061.06;5062341;28;45291;-61
2022/08/13 09:59:07;;;;;;;;;3.75;3.75;;;;;30.76;26.36;101059.19;5062591;28;45244;-60
2022/08/13 10:01:33;;;;;;;;;3.50;3.50;;;;;30.83;26.16;101055.38;5062407;28;45442;-59
2022/08/13 10:03:59;;;;;;;;;4.50;4.25;;;;;30.91;25.85;101054.28;5062491;28;45299;-61
2022/08/13 10:06:28;;;;;;;;;4.00;4.00;;;;;31.00;25.88;101058.44;5062018;28;46104;-61
2022/08/13 10:08:54;;;;;;;;;3.00;3.00;;;;;31.06;25.37;101056.72;5060918;28;45275;-60
2022/08/13 10:11:22;;;;;;;;;4.00;3.25;;;;;31.11;25.68;101054.16;5062267;28;45505;-61
2022/08/13 10:13:48;;;;;;;;;5.25;2.00;;;;;31.16;25.83;101050.81;5061886;28;45348;-61
2022/08/13 10:16:14;;;;;;;;;3.00;3.00;;;;;31.15;25.14;101049.13;5061791;28;45414;-61
2022/08/13 10:18:41;;;;;;;;;8.00;3.25;;;;;31.16;25.11;101045.34;5062073;28;45322;-62
2022/08/13 10:21:08;;;;;;;;;4.00;4.00;;;;;31.20;25.46;101039.25;5061861;28;45170;-60
2022/08/13 10:23:35;;;;;;;;;3.00;3.00;;;;;31.32;24.98;101036.69;5061640;28;45548;-61
2022/08/13 10:26:01;;;;;;;;;3.75;3.75;;;;;31.38;25.24;101042.09;5043134;28;46256;-60
2022/08/13 10:28:33;;;;;;;;;3.25;3.00;;;;;31.39;24.63;101040.22;5041412;28;45343;-61
2022/08/13 10:31:02;;;;;;;;;4.25;4.25;;;;;31.40;24.54;101045.44;5041737;28;45239;-60
2022/08/13 10:33:28;;;;;;;;;3.00;3.00;;;;;31.44;24.57;101042.25;5041808;28;45329;-62
2022/08/13 10:35:53;;;;;;;;;3.25;3.00;;;;;31.46;24.28;101043.72;5041355;28;45492;-61
2022/08/13 10:38:26;;;;;;;;;4.50;3.50;;;;;31.54;24.38;101039.91;5041659;28;45344;-61
2022/08/13 10:40:56;;;;;;;;;2.25;2.25;;;;;31.60;24.25;101044.44;5041681;28;45273;-60
2022/08/13 10:43:22;;;;;;;;;3.00;3.00;;;;;31.64;24.18;101032.88;5041381;28;45438;-61
2022/08/13 10:45:50;;;;;;;;;2.50;2.50;;;;;31.69;24.10;101029.50;5041195;28;45390;-61
2022/08/13 10:48:17;;;;;;;;;4.00;2.50;;;;;31.78;23.92;101028.19;5042202;28;45327;-61
2022/08/13 10:50:43;;;;;;;;;1.00;1.00;;;;;31.83;23.94;101022.06;5061570;28;45334;-62
2022/08/13 10:53:09;;;;;;;;;4.25;3.00;;;;;31.90;23.70;101025.56;5061658;28;45287;-61
2022/08/13 10:55:35;;;;;;;;;2.00;2.00;;;;;31.97;23.63;101025.50;5061326;28;45303;-61
2022/08/13 10:58:03;;;;;;;;;3.75;3.75;;;;;32.02;23.78;101025.66;5060833;28;45388;-61
2022/08/13 11:00:29;;;;;;;;;4.25;3.00;;;;;32.08;23.53;101020.16;5061238;28;45284;-61
2022/08/13 11:02:55;;;;;;;;;5.25;3.50;;;;;32.10;23.37;101017.19;5061397;28;45335;-61
2022/08/13 11:05:22;;;;;;;;;2.00;2.00;;;;;32.11;23.43;101011.50;5061124;28;45319;-60
2022/08/13 11:07:48;;;;;;;;;5.00;5.00;;;;;32.12;23.22;101013.16;5061134;28;45331;-61
2022/08/13 11:10:15;;;;;;;;;3.00;3.00;;;;;32.20;23.25;101015.59;5061418;28;45319;-60
2022/08/13 11:12:50;;;;;;;;;3.50;3.00;;;;;32.25;23.13;101005.91;5060861;28;45315;-60
2022/08/13 11:15:21;;;;;;;;;2.50;2.50;;;;;32.33;22.90;101013.81;5060729;28;46495;-61
2022/08/13 11:17:53;;;;;;;;;4.00;3.00;;;;;32.35;22.66;101019.88;5060713;28;45256;-61
2022/08/13 11:20:19;;;;;;;;;2.75;1.75;;;;;32.36;22.74;101018.81;5061022;28;45437;-60
2022/08/13 11:22:55;;;;;;;;;1.75;1.75;;;;;32.35;22.03;101015.25;5060898;28;45318;-60
2022/08/13 11:25:22;;;;;;;;;1.50;1.50;;;;;32.32;22.19;101014.88;5046996;28;45417;-62
2022/08/13 11:27:48;;;;;;;;;4.25;1.25;;;;;32.33;21.85;101016.53;5040822;28;45302;-61
2022/08/13 11:30:15;;;;;;;;;3.00;1.00;;;;;32.34;22.07;101013.59;5040824;28;45415;-62
2022/08/13 11:32:41;;;;;;;;;2.00;2.00;;;;;32.34;21.75;101008.13;5047598;28;45170;-61
2022/08/13 11:35:07;;;;;;;;;1.00;1.00;;;;;32.38;21.87;101006.59;5060709;28;45343;-61
2022/08/13 11:37:34;;;;;;;;;1.25;1.00;;;;;32.43;21.57;101006.75;5060749;28;45300;-59
2022/08/13 11:40:00;;;;;;;;;2.00;2.00;;;;;32.48;21.55;101008.81;5059992;28;45501;-60
2022/08/13 11:42:25;;;;;;;;;1.25;1.25;;;;;32.46;21.00;100989.09;5060695;28;45330;-61
2022/08/13 11:44:51;;;;;;;;;2.00;2.00;;;;;32.50;21.08;100993.88;5060392;28;46138;-62
2022/08/13 11:47:19;;;;;;;;;3.50;2.00;;;;;32.55;21.19;101001.38;5060365;28;45327;-61
2022/08/13 11:49:44;;;;;;;;;2.25;1.75;;;;;32.62;21.59;100987.63;5060476;28;45453;-59
2022/08/13 11:52:10;;;;;;;;;4.25;2.75;;;;;32.70;21.76;100990.03;5060646;28;45244;-61